Encarnación, Paraguay

7:26 AM PYT en Agosto 23, 2014 (GMT -0400)
Liberador Gral D Jose De San M | Change Station
CLOSE
Current Station
Aeropuerto
Location: Posadas,
Altura: 430 ft
Estaciones meteorológicas cercanas

Alt 430 ft 27.39 °S, 55.97 °W | Updated 26 minutes ago

Scattered Clouds
Nubes dispersas
73 ° F
Sensación térmica 73 ° F
N
6
Viento Variable Viento desde ENE

Hoy
Alta -- | Baja -- ° F
--% Posibilidad de precipitaciones
Ayer
Alta -- | Baja -- ° F
Precip. -- pul
6:06 AM 5:26 PM
Creciente menguante, 4% visible
Presión 29.86 pul
Visibilidad 6.2 Millas
Nubes Baja 4000 ft
Nubes dispersas 10000 ft
Punto de rocío 57 ° F
Humedad 57%
Precipitaciones 0.00 pul
Espesor de la nieve No disponible.
UV 0 de una escala de 12
Polen No disponible.
Calidad del aire No disponible.
Flu Activity No disponible.
METAR SARP 231100Z 07005KT 9999 FEW040TCU SCT100 23/14 Q1011

More Conditions Fewer Conditions

Presión 29.86 pul
Visibilidad 6.2 Millas
Nubes Baja 4000 ft
Nubes dispersas 10000 ft
Punto de rocío 57 ° F
Humedad 57%
Precipitaciones 0.00 pul
Espesor de la nieve No disponible.
UV 0 de una escala de 12
Polen No disponible.
Calidad del aire No disponible.
Flu Activity No disponible.
METAR SARP 231100Z 07005KT 9999 FEW040TCU SCT100 23/14 Q1011

More Conditions Fewer Conditions

10-Day Weather Forecast

Almanac

Astronomía

Aug. 23, 2014 Salida Puesta
Hora real 6:06 AM PYT 5:26 PM PYT
Crepúsculo civil 5:42 AM PYT 5:49 PM PYT
Crepúsculo náutico 5:15 AM PYT 6:17 PM PYT
Crepúsculo astronómico 4:47 AM PYT 6:44 PM PYT
Luna 4:34 AM PYT 3:57 PM PYT
Horas de luz 12h 07m
Horas de luz
11h 20m
Tomorrow will be 1m 26s longer.
Creciente menguante, 4% of the Moon is Illuminated
Hoy
Creciente menguante
Ago 25
Nueva
Sep 2
Cuarto creciente
Sep 8
Luna llena
Sep 15
Cuarto menguante

Extremos de ayer

Máximos del país Bajas del país

Community

WunderPhotos

Upload Photos

1,746,418 ¡fotos cargadas!

WunderBlogs® & News

By Dr. Jeff Masters
Director of Meteorology, Weather Underground
By Kari Strenfel
Meteorologist, Weather Underground
By Christopher C. Burt
Weather Historian, Weather Underground
August 23, 2014
August 23, 2014
August 23, 2014

Nearby

Calidad del aire

Not available.

Grosos de nieve

Not available.

Actividad de terremotos

Ciudad Distance Mag. Tiempo y dato
No hay informes recientes de la actividad sísmica.
Magnitud mínima muestra es 2,5.

Temperaturas de aguas costeras

Lugar Temperatura
Sin partes meteorológicos de las estaciones

Estaciones meteorológicas cercanas